Weather observations for the past three days for
McKinley Park, McKinley National Park Airport
Metric (Imperial)
Date Time (akdt) Wind (kph) Vis. (km) Weather Sky Cond. Temperature (ºC) Relative Humidity Wind Chill (°C) Heat Index (°C) Pressure Precipitation (cm)
Air Dwpt 6 hour altimeter (cm) sea level (mb) 1 hr 3 hr 6 hr
Max. Min.
02 14:56 SE 22 G 41 16.09 Overcast OVC047 5 -2.2 60% 1 75.92 1014.0
02 13:56 SE 19 G 37 16.09 Overcast OVC047 5 -2.2 60% 2 75.84 1013.1
02 12:56 SE 17 G 33 16.09 Overcast OVC050 5.6 -2.8 55% 3 75.77 1012.2
02 11:56 SE 20 G 33 16.09 Overcast BKN048 OVC055 5 -2.8 57% 1 75.72 1011.5
02 10:56 SE 15 G 33 16.09 Overcast OVC060 5 -2.2 60% 2 75.67 1010.8
02 09:56 SE 15 G 31 16.09 Overcast OVC060 4.4 -3.3 4.4 2.2 58% 1 75.62 1010.1
02 08:56 SE 15 G 28 16.09 Overcast BKN055 OVC100 3.3 -3.3 62% 0 75.57 1009.5
02 07:56 SE 19 G 30 16.09 A Few Clouds FEW100 2.8 -2.8 67% -1 75.49 1008.4
02 06:56 SE 19 G 26 16.09 Mostly Cloudy BKN050 2.2 -2.8 70% -2 75.41 1007.3
02 05:56 Vrbl 11 G 26 16.09 Mostly Cloudy BKN100 2.2 -3.3 67% -1 75.36 1006.7
02 04:56 SE 13 G 28 16.09 Overcast BKN045 OVC060 2.2 -3.3 67% -1 75.31 1005.8
02 03:56 Vrbl 11 16.09 Overcast BKN047 OVC060 2.2 -3.3 3.9 1.7 67% -1 75.26 1005.0
02 02:56 S 13 G 28 16.09 Overcast BKN050 OVC065 2.2 -2.2 73% -1 75.13 1003.6
02 01:56 Vrbl 11 16.09 Overcast OVC060 2.2 -1.7 76% -1 75.06 1002.3
02 00:56 Calm 16.09 Light Rain FEW033 BKN050 OVC070 1.7 0 89% 74.98 1001.6
01 23:56 S 11 G 35 16.09 Light Rain BKN047 OVC055 3.3 -1.1 73% 1 74.88 1000.0
01 22:56 S 11 16.09 Overcast FEW043 OVC060 3.9 -1.7 67% 1 74.83 999.3
01 21:56 S 15 16.09 Overcast BKN041 OVC049 3.3 -1.1 6.7 3.3 73% 0 74.83 999.3
01 20:56 Vrbl 9 16.09 Overcast OVC043 3.9 -1.7 67% 2 74.83 999.5
01 19:56 S 15 G 31 16.09 Overcast OVC043 4.4 -2.2 63% 1 74.8 999.3
01 18:56 SW 19 G 31 16.09 Overcast OVC050 5 -2.2 60% 2 74.83 999.4
01 17:56 S 15 G 41 16.09 Overcast BKN042 OVC048 5.6 -2.8 55% 3 74.88 1000.1
01 16:56 S 17 16.09 Overcast OVC046 6.1 -2.2 56% 3 74.93 1000.6
01 15:56 S 19 G 41 16.09 Overcast OVC048 6.7 -3.9 6.7 4.4 47% 4 74.98 1001.4
01 14:56 S 17 G 50 16.09 Overcast OVC050 6.1 -4.4 47% 3 75.08 1002.6
01 13:56 S 17 G 39 16.09 Overcast OVC046 6.1 -5 45% 3 75.11 1003.2
01 12:56 S 19 G 37 16.09 Overcast OVC048 5 -4.4 51% 2 75.16 1003.9
01 11:56 S 17 G 31 16.09 Overcast OVC048 5 -4.4 51% 2 75.18 1004.3
01 10:56 S 17 G 30 16.09 Overcast OVC050 5 -5 49% 2 75.23 1004.8
01 09:56 Vrbl 11 G 28 16.09 Overcast OVC048 4.4 -5.6 4.4 2.8 49% 2 75.29 1005.7
01 08:56 S 9 16.09 Overcast OVC045 3.9 -4.4 55% 2 75.39 1007.1
01 07:56 S 19 G 39 16.09 Light Rain OVC050 2.8 -3.9 62% -1 75.44 1007.8
01 06:56 S 19 G 30 16.09 Overcast BKN047 OVC055 3.3 -5 55% -1 75.46 1008.1
01 05:56 S 15 G 26 16.09 Overcast OVC060 3.3 -5 55% 0 75.54 1009.1
01 04:56 S 24 G 41 16.09 Partly Cloudy SCT049 3.3 -5 55% -1 75.54 1009.0
01 03:56 S 19 G 37 16.09 Overcast SCT049 OVC060 2.8 -4.4 4.4 2.8 59% -1 75.57 1009.5
01 02:56 S 17 G 31 16.09 Overcast SCT045 OVC060 3.3 -3.9 60% -0 75.59 1009.7
01 01:56 Vrbl 11 16.09 Overcast OVC055 3.9 -4.4 55% 1 75.67 1010.6
01 00:56 S 19 G 30 16.09 Overcast OVC060 3.3 -3.9 60% -1 75.69 1011.0
30 23:56 S 20 G 37 16.09 Overcast OVC055 3.9 -4.4 55% 0 75.69 1011.2
30 22:56 Vrbl 9 16.09 Mostly Cloudy FEW045 BKN050 3.9 -5 53% 2 75.69 1011.3
30 21:56 S 15 16.09 Overcast BKN055 OVC065 4.4 -5.6 5 3.9 49% 1 75.69 1011.2
30 20:56 S 11 16.09 Overcast BKN050 OVC060 3.9 -5 53% 1 75.72 1011.6
30 19:56 S 19 G 35 16.09 Overcast BKN050 OVC060 3.9 -5 53% 0 75.74 1012.0
30 18:56 S 13 G 28 16.09 Overcast OVC050 4.4 -5 51% 2 75.79 1012.8
30 17:56 S 19 G 43 16.09 Overcast SCT049 OVC060 4.4 -5.6 49% 1 75.79 1013.1
30 16:56 S 19 G 30 16.09 Overcast BKN050 OVC060 4.4 -5.6 49% 1 75.82 1013.2
30 15:56 SE 22 G 35 16.09 Overcast FEW039 OVC048 4.4 -6.1 4.4 3.3 47% 0 75.84 1013.6
30 14:56 S 19 G 37 16.09 Overcast OVC050 3.9 -6.1 48% 0 75.84 1013.9
30 13:56 S 20 G 39 16.09 Overcast OVC055 3.9 -7.2 45% 0 75.82 1013.4
30 12:56 S 17 G 30 16.09 Overcast OVC055 3.9 -7.2 45% 0 75.84 1013.5
30 11:56 S 24 G 43 16.09 Overcast OVC049 3.3 -7.8 44% -1 75.84 1013.4
30 10:56 S 19 G 44 16.09 Fair CLR 3.3 -7.8 44% -1 75.84 1013.4
30 09:56 S 17 G 37 16.09 Fair CLR 3.3 -7.8 3.3 -3.9 44% -0 75.84 1013.5
30 08:56 S 13 G 35 16.09 Partly Cloudy SCT055 2.8 -7.2 48% -0 75.9 1013.9
30 07:56 Vrbl 9 16.09 Mostly Cloudy BKN050 1.1 -7.8 52% -1 75.92 1014.3
30 06:56 Calm 16.09 Mostly Cloudy BKN050 -1.1 -6.7 66% 75.97 1015.1
30 05:56 S 6 16.09 Fair CLR -3.3 -7.2 75% 75.97 1015.4
30 04:56 SW 9 16.09 Mostly Cloudy BKN050 -3.3 -7.8 71% -7 75.97 1015.3
30 03:56 W 7 16.09 A Few Clouds FEW050 -3.9 -7.8 1.1 -4.4 75% -7 75.97 1015.3
30 02:56 Calm 16.09 A Few Clouds FEW070 -3.9 -7.8 75% 75.95 1015.2
30 01:56 SW 6 16.09 Fair CLR -3.3 -7.8 71% 75.95 1014.8
30 00:56 SW 6 16.09 Fair CLR -2.8 -7.2 72% 75.92 1014.6
29 23:56 Calm 16.09 Fair CLR -1.7 -7.2 66% 75.9 1014.2
29 22:56 S 6 16.09 Fair CLR 0 -6.7 61% 75.9 1014.0
29 21:56 Calm 16.09 Fair CLR 1.1 -7.8 5.6 1.1 52% 75.87 1013.6
29 20:56 Vrbl 7 16.09 Fair CLR 2.8 -7.8 46% 1 75.84 1013.4
29 19:56 SE 11 16.09 Fair CLR 3.9 -7.8 43% 1 75.84 1013.5
29 18:56 Vrbl 11 G 26 16.09 A Few Clouds FEW050 4.4 -7.8 41% 2 75.9 1013.9
29 17:56 S 13 G 28 16.09 Mostly Cloudy BKN055 4.4 -7.2 43% 2 75.92 1014.4
29 16:56 S 15 16.09 Overcast OVC055 5.6 -8.3 36% 3 75.97 1014.8
29 15:56 SE 15 G 26 16.09 Overcast OVC055 5.6 -7.8 5.6 3.3 38% 3 76 1015.4
Date Time (akdt) Wind (kph) Vis. (km) Weather Sky Cond. Air Dwpt Max. Min. Relative Humidity Wind Chill (°C) Heat Index (°C) altimeter (cm) sea level (mb) 1 hr 3 hr 6 hr
6 hour
Temperature (ºC) Pressure Precipitation (cm)